createdAt,value
2017-02-23T00:00:09.496Z,11.09
2017-02-23T00:02:24.769Z,11.04
2017-02-23T00:03:06.375Z,11.1
2017-02-23T00:03:48.041Z,11.07
2017-02-23T00:04:29.695Z,11.07
2017-02-23T00:05:11.400Z,11.03
2017-02-23T00:05:53.110Z,11.04
2017-02-23T00:07:32.166Z,11.06
2017-02-23T00:09:47.623Z,10.91
2017-02-23T00:10:29.245Z,11
2017-02-23T00:11:11.016Z,10.96
2017-02-23T00:11:52.731Z,11.06
2017-02-23T00:12:34.480Z,10.99
2017-02-23T00:13:16.106Z,11
2017-02-23T00:13:57.547Z,10.97
2017-02-23T00:14:39.023Z,11.06
2017-02-23T00:15:20.750Z,11.03
2017-02-23T00:16:02.448Z,11.06
2017-02-23T00:16:44.210Z,11.04
2017-02-23T00:17:25.936Z,11.03
2017-02-23T00:18:07.684Z,11.1
2017-02-23T00:18:49.419Z,11.09
2017-02-23T00:19:31.215Z,11
2017-02-23T00:20:12.988Z,11.11
2017-02-23T00:20:54.707Z,11.09
2017-02-23T00:22:33.762Z,11.22
2017-02-23T00:24:28.514Z,11.19
2017-02-23T00:25:10.173Z,11.17
2017-02-23T00:25:51.925Z,11.21
2017-02-23T00:26:33.687Z,11.18
2017-02-23T00:27:15.472Z,11.1
2017-02-23T00:27:57.205Z,11.21
2017-02-23T00:28:38.869Z,11.19
2017-02-23T00:29:20.639Z,11.14
2017-02-23T00:30:02.392Z,11.19
2017-02-23T00:30:44.139Z,11.19
2017-02-23T00:31:25.870Z,11.17
2017-02-23T00:32:07.608Z,11.17
2017-02-23T00:32:49.430Z,11.22
2017-02-23T00:33:31.122Z,11.22
2017-02-23T00:34:12.801Z,11.17
2017-02-23T00:35:51.834Z,11.27
2017-02-23T00:36:33.623Z,11.22
2017-02-23T00:37:15.201Z,11.25
2017-02-23T00:37:56.793Z,11.21
2017-02-23T00:38:38.505Z,11.22
2017-02-23T00:39:20.202Z,11.22
2017-02-23T00:40:01.951Z,11.15
2017-02-23T00:40:43.692Z,11.14
2017-02-23T00:41:25.454Z,11.21
2017-02-23T00:42:07.260Z,11.07
2017-02-23T00:42:48.957Z,11.14
2017-02-23T00:43:30.718Z,11.07
2017-02-23T00:44:12.412Z,11.09
2017-02-23T00:44:54.148Z,11.07
2017-02-23T00:45:35.873Z,11.11
2017-02-23T00:46:17.517Z,11.14
2017-02-23T00:46:59.267Z,11.06
2017-02-23T00:47:40.909Z,11.15
2017-02-23T00:49:19.743Z,11.03
2017-02-23T00:51:14.364Z,11.03
2017-02-23T00:51:55.922Z,10.97
2017-02-23T00:53:50.578Z,10.91
2017-02-23T00:55:45.323Z,10.96
2017-02-23T00:57:40.013Z,10.86
2017-02-23T00:59:29.383Z,10.85
2017-02-23T01:00:11.026Z,10.85
2017-02-23T01:00:52.415Z,10.96
2017-02-23T01:02:31.465Z,10.85
2017-02-23T01:03:13.176Z,10.84
2017-02-23T01:03:54.843Z,10.88
2017-02-23T01:04:36.679Z,10.92
2017-02-23T01:05:18.306Z,10.89
2017-02-23T01:06:57.309Z,10.86
2017-02-23T01:07:39.155Z,10.85
2017-02-23T01:08:20.578Z,10.91
2017-02-23T01:10:35.780Z,10.92
2017-02-23T01:12:51.187Z,10.88
2017-02-23T01:13:32.926Z,10.88
2017-02-23T01:14:14.662Z,10.89
2017-02-23T01:14:56.424Z,10.86
2017-02-23T01:15:38.172Z,10.85
2017-02-23T01:16:19.900Z,10.84
2017-02-23T01:17:01.690Z,10.84
2017-02-23T01:17:43.328Z,10.88
2017-02-23T01:18:24.953Z,10.79
2017-02-23T01:19:06.386Z,10.86
2017-02-23T01:19:47.999Z,10.89
2017-02-23T01:21:48.032Z,10.89
2017-02-23T01:22:29.755Z,10.81
2017-02-23T01:23:11.381Z,10.82
2017-02-23T01:23:52.855Z,10.78
2017-02-23T01:25:31.883Z,10.81
2017-02-23T01:26:13.613Z,10.82
2017-02-23T01:26:55.214Z,10.86
2017-02-23T01:27:36.957Z,10.88
2017-02-23T01:28:18.722Z,10.79
2017-02-23T01:30:34.065Z,10.85
2017-02-23T01:32:23.466Z,10.88
2017-02-23T01:33:05.229Z,10.76
2017-02-23T01:33:46.847Z,10.78
2017-02-23T01:34:28.538Z,10.82
2017-02-23T01:35:10.270Z,10.81
2017-02-23T01:35:52.006Z,10.76
2017-02-23T01:36:33.690Z,10.86
2017-02-23T01:37:15.363Z,10.82
2017-02-23T01:37:57.080Z,10.81
2017-02-23T01:38:38.749Z,10.73
2017-02-23T01:39:20.538Z,10.85
2017-02-23T01:41:15.262Z,10.74
2017-02-23T01:41:56.862Z,10.73
2017-02-23T01:42:38.596Z,10.79
2017-02-23T01:43:20.279Z,10.73
2017-02-23T01:44:01.842Z,10.74
2017-02-23T01:44:43.697Z,10.74
2017-02-23T01:45:24.951Z,10.76
2017-02-23T01:47:19.559Z,10.78
2017-02-23T01:48:01.005Z,10.76
2017-02-23T01:48:42.733Z,10.73
2017-02-23T01:49:24.492Z,10.79
2017-02-23T01:50:06.216Z,10.84
2017-02-23T01:50:47.638Z,10.79
2017-02-23T01:52:42.085Z,10.92
2017-02-23T01:53:23.499Z,10.78
2017-02-23T01:54:04.968Z,10.92
2017-02-23T01:54:46.826Z,10.74
2017-02-23T01:56:36.074Z,10.73
2017-02-23T01:57:17.878Z,10.76
2017-02-23T01:59:33.402Z,10.76
2017-02-23T02:01:33.571Z,10.74
2017-02-23T02:02:15.274Z,10.81
2017-02-23T02:02:55.822Z,10.79
2017-02-23T02:03:36.355Z,10.84
2017-02-23T02:04:16.887Z,10.91
2017-02-23T02:04:57.420Z,10.78
2017-02-23T02:05:37.955Z,10.86
2017-02-23T02:06:18.500Z,10.78
2017-02-23T02:06:59.031Z,10.76
2017-02-23T02:07:39.566Z,10.78
2017-02-23T02:08:20.092Z,10.86
2017-02-23T02:09:00.623Z,10.86
2017-02-23T02:09:41.171Z,10.86
2017-02-23T02:10:21.695Z,10.86
2017-02-23T02:11:02.229Z,10.91
2017-02-23T02:11:42.760Z,10.88
2017-02-23T02:12:23.288Z,10.92
2017-02-23T02:13:03.824Z,10.94
2017-02-23T02:13:44.354Z,10.99
2017-02-23T02:14:24.885Z,11.06
2017-02-23T02:15:05.413Z,11.02
2017-02-23T02:15:45.940Z,10.97
2017-02-23T02:16:26.476Z,11.02
2017-02-23T02:17:07.002Z,11.03
2017-02-23T02:17:47.534Z,10.96
2017-02-23T02:18:28.069Z,11.04
2017-02-23T02:19:08.596Z,11.04
2017-02-23T02:19:49.132Z,11.07
2017-02-23T02:20:29.666Z,11.03
2017-02-23T02:21:10.207Z,10.96
2017-02-23T02:21:50.739Z,11.03
2017-02-23T02:22:31.268Z,11.02
2017-02-23T02:23:11.802Z,10.99
2017-02-23T02:23:52.342Z,11.04
2017-02-23T02:24:32.880Z,11.02
2017-02-23T02:25:13.409Z,11.09
2017-02-23T02:25:53.942Z,11.03
2017-02-23T02:26:34.481Z,11.03
2017-02-23T02:27:15.038Z,11.07
2017-02-23T02:27:55.574Z,11.02
2017-02-23T02:28:36.100Z,11.03
2017-02-23T02:29:16.635Z,11.09
2017-02-23T02:29:57.172Z,11.1
2017-02-23T02:30:37.707Z,11.15
2017-02-23T02:31:18.246Z,11.14
2017-02-23T02:31:58.782Z,11.1
2017-02-23T02:32:39.313Z,11.21
2017-02-23T02:33:19.849Z,11.21
2017-02-23T02:34:00.376Z,11.21
2017-02-23T02:34:40.909Z,11.25
2017-02-23T02:35:21.439Z,11.17
2017-02-23T02:36:01.979Z,11.21
2017-02-23T02:36:42.506Z,11.21
2017-02-23T02:37:23.041Z,11.11
2017-02-23T02:38:03.576Z,11.19
2017-02-23T02:38:44.114Z,11.14
2017-02-23T02:39:24.649Z,11.22
2017-02-23T02:40:05.165Z,11.18
2017-02-23T02:40:45.702Z,11.19
2017-02-23T02:41:26.235Z,11.21
2017-02-23T02:42:06.774Z,11.21
2017-02-23T02:42:47.307Z,11.29
2017-02-23T02:43:27.839Z,11.32
2017-02-23T02:44:08.367Z,11.24
2017-02-23T02:44:48.898Z,11.22
2017-02-23T02:45:29.429Z,11.32
2017-02-23T02:46:09.962Z,11.28
2017-02-23T02:46:50.503Z,11.27
2017-02-23T02:47:31.041Z,11.32
2017-02-23T02:48:11.569Z,11.22
2017-02-23T02:48:52.134Z,11.21
2017-02-23T02:49:32.665Z,11.24
2017-02-23T02:50:13.202Z,11.17
2017-02-23T02:50:53.742Z,11.29
2017-02-23T02:51:34.280Z,11.17
2017-02-23T02:52:14.816Z,11.28
2017-02-23T02:52:55.354Z,11.22
2017-02-23T02:53:35.879Z,11.19
2017-02-23T02:54:16.419Z,11.22
2017-02-23T02:54:56.962Z,11.25
2017-02-23T02:55:37.505Z,11.27
2017-02-23T02:56:18.032Z,11.29
2017-02-23T02:56:58.567Z,11.28
2017-02-23T02:57:39.100Z,11.27
2017-02-23T02:58:19.629Z,11.25
2017-02-23T02:59:00.170Z,11.37
2017-02-23T02:59:40.700Z,11.36
2017-02-23T03:00:21.233Z,11.25
2017-02-23T03:01:01.770Z,11.36
2017-02-23T03:01:42.304Z,11.33
2017-02-23T03:02:22.836Z,11.37
2017-02-23T03:03:03.370Z,11.39
2017-02-23T03:03:43.904Z,11.32
2017-02-23T03:04:24.440Z,11.32
2017-02-23T03:05:04.973Z,11.33
2017-02-23T03:05:45.505Z,11.4
2017-02-23T03:06:26.033Z,11.39
2017-02-23T03:07:06.569Z,11.43
2017-02-23T03:07:47.097Z,11.39
2017-02-23T03:08:27.633Z,11.42
2017-02-23T03:09:08.157Z,11.44
2017-02-23T03:09:48.678Z,11.44
2017-02-23T03:10:29.216Z,11.43
2017-02-23T03:11:09.753Z,11.39
2017-02-23T03:11:50.308Z,11.42
2017-02-23T03:12:30.846Z,11.44
2017-02-23T03:13:11.384Z,11.4
2017-02-23T03:13:51.924Z,11.39
2017-02-23T03:14:32.464Z,11.44
2017-02-23T03:15:12.990Z,11.39
2017-02-23T03:15:53.529Z,11.42
2017-02-23T03:16:34.057Z,11.43
2017-02-23T03:17:14.585Z,11.42
2017-02-23T03:17:55.127Z,11.42
2017-02-23T03:18:35.661Z,11.43
2017-02-23T03:19:16.193Z,11.49
2017-02-23T03:19:56.725Z,11.42
2017-02-23T03:20:37.258Z,11.46
2017-02-23T03:21:17.799Z,11.44
2017-02-23T03:21:58.331Z,11.39
2017-02-23T03:22:38.865Z,11.4
2017-02-23T03:23:19.402Z,11.37
2017-02-23T03:23:59.938Z,11.47
2017-02-23T03:24:40.472Z,11.49
2017-02-23T03:25:21.000Z,11.52
2017-02-23T03:26:01.538Z,11.57
2017-02-23T03:26:42.069Z,11.54
2017-02-23T03:27:22.594Z,11.47
2017-02-23T03:28:03.134Z,11.64
2017-02-23T03:28:43.661Z,11.47
2017-02-23T03:29:24.198Z,11.58
2017-02-23T03:30:04.736Z,11.52
2017-02-23T03:30:45.271Z,11.52
2017-02-23T03:31:25.813Z,11.52
2017-02-23T03:32:06.344Z,11.58
2017-02-23T03:32:46.883Z,11.49
2017-02-23T03:33:27.412Z,11.49
2017-02-23T03:34:07.946Z,11.57
2017-02-23T03:34:48.474Z,11.52
2017-02-23T03:35:29.005Z,11.57
2017-02-23T03:36:09.537Z,11.47
2017-02-23T03:36:50.078Z,11.47
2017-02-23T03:37:30.615Z,11.51
2017-02-23T03:38:11.147Z,11.39
2017-02-23T03:38:51.693Z,11.42
2017-02-23T03:39:32.239Z,11.52
2017-02-23T03:40:12.766Z,11.44
2017-02-23T03:40:53.291Z,11.37
2017-02-23T03:41:33.831Z,11.36
2017-02-23T03:42:14.359Z,11.39
2017-02-23T03:42:54.896Z,11.49
2017-02-23T03:43:35.418Z,11.49
2017-02-23T03:44:15.951Z,11.51
2017-02-23T03:44:56.498Z,11.52
2017-02-23T03:45:37.035Z,11.51
2017-02-23T03:46:17.576Z,11.57
2017-02-23T03:46:58.107Z,11.57
2017-02-23T03:47:38.639Z,11.49
2017-02-23T03:48:19.171Z,11.51
2017-02-23T03:48:59.703Z,11.46
2017-02-23T03:49:40.238Z,11.49
2017-02-23T03:50:20.770Z,11.54
2017-02-23T03:51:01.313Z,11.52
2017-02-23T03:51:41.847Z,11.54
2017-02-23T03:52:22.373Z,11.52
2017-02-23T03:53:02.913Z,11.52
2017-02-23T03:53:43.450Z,11.51
2017-02-23T03:54:23.990Z,11.57
2017-02-23T03:55:04.516Z,11.55
2017-02-23T03:55:45.051Z,11.54
2017-02-23T03:56:25.575Z,11.47
2017-02-23T03:57:06.107Z,11.4
2017-02-23T03:57:46.641Z,11.55
2017-02-23T03:58:27.186Z,11.49
2017-02-23T03:59:07.736Z,11.52
2017-02-23T03:59:48.272Z,11.52
2017-02-23T04:00:28.804Z,11.47
2017-02-23T04:01:09.334Z,11.47
2017-02-23T04:01:49.859Z,11.49
2017-02-23T04:02:30.405Z,11.52
2017-02-23T04:03:10.935Z,11.52
2017-02-23T04:03:51.474Z,11.51
2017-02-23T04:04:32.013Z,11.51
2017-02-23T04:05:12.548Z,11.52
2017-02-23T04:05:53.071Z,11.52
2017-02-23T04:06:33.612Z,11.49
2017-02-23T04:07:14.137Z,11.54
2017-02-23T04:07:54.672Z,11.51
2017-02-23T04:08:35.201Z,11.39
2017-02-23T04:09:15.734Z,11.37
2017-02-23T04:09:56.271Z,11.51
2017-02-23T04:10:36.802Z,11.42
2017-02-23T04:11:17.340Z,11.43
2017-02-23T04:11:57.874Z,11.42
2017-02-23T04:12:38.401Z,11.43
2017-02-23T04:13:18.923Z,11.51
2017-02-23T04:13:59.456Z,11.49
2017-02-23T04:14:39.992Z,11.49
2017-02-23T04:15:20.525Z,11.43
2017-02-23T04:16:01.056Z,11.37
2017-02-23T04:16:41.577Z,11.42
2017-02-23T04:17:22.138Z,11.46
2017-02-23T04:18:02.676Z,11.37
2017-02-23T04:18:43.217Z,11.4
2017-02-23T04:19:23.756Z,11.49
2017-02-23T04:20:04.312Z,11.51
2017-02-23T04:20:44.857Z,11.51
2017-02-23T04:21:25.386Z,11.42
2017-02-23T04:22:05.924Z,11.36
2017-02-23T04:22:46.453Z,11.42
2017-02-23T04:23:26.983Z,11.39
2017-02-23T04:24:07.515Z,11.37
2017-02-23T04:24:48.051Z,11.39
2017-02-23T04:25:28.588Z,11.42
2017-02-23T04:26:09.118Z,11.36
2017-02-23T04:26:49.649Z,11.44
2017-02-23T04:27:30.179Z,11.42
2017-02-23T04:28:10.712Z,11.37
2017-02-23T04:28:51.248Z,11.37
2017-02-23T04:29:31.778Z,11.33
2017-02-23T04:30:12.299Z,11.28
2017-02-23T04:30:52.840Z,11.32
2017-02-23T04:31:33.358Z,11.37
2017-02-23T04:32:13.890Z,11.37
2017-02-23T04:32:54.427Z,11.42
2017-02-23T04:33:34.961Z,11.32
2017-02-23T04:34:15.486Z,11.4
2017-02-23T04:34:56.037Z,11.37
2017-02-23T04:35:36.559Z,11.35
2017-02-23T04:36:17.092Z,11.35
2017-02-23T04:36:57.619Z,11.35
2017-02-23T04:37:38.124Z,11.37
2017-02-23T04:38:18.661Z,11.35
2017-02-23T04:38:59.202Z,11.37
2017-02-23T04:39:39.740Z,11.27
2017-02-23T04:40:20.274Z,11.32
2017-02-23T04:41:00.802Z,11.27
2017-02-23T04:41:41.332Z,11.36
2017-02-23T04:42:21.872Z,11.36
2017-02-23T04:43:02.415Z,11.4
2017-02-23T04:43:42.953Z,11.36
2017-02-23T04:44:23.491Z,11.32
2017-02-23T04:45:04.012Z,11.42
2017-02-23T04:45:44.547Z,11.4
2017-02-23T04:46:25.070Z,11.43
2017-02-23T04:47:05.608Z,11.39
2017-02-23T04:47:46.128Z,11.39
2017-02-23T04:48:26.679Z,11.4
2017-02-23T04:49:07.208Z,11.42
2017-02-23T04:49:47.740Z,11.29
2017-02-23T04:50:28.280Z,11.29
2017-02-23T04:51:08.810Z,11.35
2017-02-23T04:51:49.350Z,11.33
2017-02-23T04:52:29.897Z,11.37
2017-02-23T04:53:10.450Z,11.35
2017-02-23T04:53:50.983Z,11.39
2017-02-23T04:54:31.516Z,11.33
2017-02-23T04:55:12.053Z,11.44
2017-02-23T04:55:52.586Z,11.36
2017-02-23T04:56:33.132Z,11.42
2017-02-23T04:57:13.668Z,11.35
2017-02-23T04:57:54.210Z,11.42
2017-02-23T04:58:34.730Z,11.36
2017-02-23T04:59:15.271Z,11.29
2017-02-23T04:59:55.810Z,11.32
2017-02-23T05:00:36.347Z,11.32
2017-02-23T05:01:16.883Z,11.33
2017-02-23T05:01:57.468Z,11.36
2017-02-23T05:02:37.995Z,11.36
2017-02-23T05:03:18.581Z,11.35
2017-02-23T05:03:59.105Z,11.33
2017-02-23T05:04:39.641Z,11.36
2017-02-23T05:05:20.192Z,11.39
2017-02-23T05:06:00.721Z,11.28
2017-02-23T05:06:41.262Z,11.28
2017-02-23T05:07:21.814Z,11.27
2017-02-23T05:08:02.366Z,11.32
2017-02-23T05:08:42.914Z,11.28
2017-02-23T05:09:23.456Z,11.25
2017-02-23T05:10:03.989Z,11.25
2017-02-23T05:10:44.533Z,11.32
2017-02-23T05:11:25.036Z,11.25
2017-02-23T05:12:05.575Z,11.27
2017-02-23T05:12:46.102Z,11.28
2017-02-23T05:13:26.631Z,11.25
2017-02-23T05:14:07.163Z,11.35
2017-02-23T05:14:47.717Z,11.29
2017-02-23T05:15:28.236Z,11.33
2017-02-23T05:16:08.793Z,11.33
2017-02-23T05:16:49.329Z,11.28
2017-02-23T05:17:29.862Z,11.32
2017-02-23T05:18:10.401Z,11.28
2017-02-23T05:18:50.908Z,11.27
2017-02-23T05:19:31.443Z,11.36
2017-02-23T05:20:11.979Z,11.29
2017-02-23T05:20:52.527Z,11.29
2017-02-23T05:21:33.086Z,11.35
2017-02-23T05:22:13.627Z,11.35
2017-02-23T05:22:54.148Z,11.35
2017-02-23T05:23:34.719Z,11.36
2017-02-23T05:24:15.256Z,11.37
2017-02-23T05:24:55.789Z,11.35
2017-02-23T05:25:36.322Z,11.35
2017-02-23T05:26:16.864Z,11.32
2017-02-23T05:26:57.533Z,11.28
2017-02-23T05:27:38.090Z,11.33
2017-02-23T05:28:18.650Z,11.27
2017-02-23T05:28:59.198Z,11.29
2017-02-23T05:29:39.733Z,11.28
2017-02-23T05:30:20.309Z,11.25
2017-02-23T05:31:00.825Z,11.25
2017-02-23T05:31:41.361Z,11.22
2017-02-23T05:32:21.892Z,11.18
2017-02-23T05:33:02.439Z,11.24
2017-02-23T05:33:42.962Z,11.21
2017-02-23T05:34:23.491Z,11.17
2017-02-23T05:35:04.024Z,11.17
2017-02-23T05:35:44.561Z,11.18
2017-02-23T05:36:25.099Z,11.17
2017-02-23T05:37:05.642Z,11.19
2017-02-23T05:37:46.149Z,11.06
2017-02-23T05:38:26.676Z,11.07
2017-02-23T05:39:07.196Z,11.07
2017-02-23T05:39:47.708Z,11.22
2017-02-23T05:40:28.249Z,11.1
2017-02-23T05:41:08.754Z,11.09
2017-02-23T05:41:49.297Z,11.07
2017-02-23T05:42:29.833Z,11.15
2017-02-23T05:43:10.480Z,11.15
2017-02-23T05:44:59.532Z,11.04
2017-02-23T05:45:40.054Z,11.14
2017-02-23T05:46:20.563Z,11.11
2017-02-23T05:47:01.074Z,11.1
2017-02-23T05:47:41.607Z,11.06
2017-02-23T05:48:22.134Z,11.03
2017-02-23T05:49:02.659Z,11.06
2017-02-23T05:49:43.187Z,11.09
2017-02-23T05:50:23.726Z,11.09
2017-02-23T05:51:04.258Z,11.17
2017-02-23T05:51:44.782Z,11.11
2017-02-23T05:52:25.315Z,11.09
2017-02-23T05:53:05.849Z,11.1
2017-02-23T05:53:46.383Z,11.1
2017-02-23T05:54:26.890Z,11.07
2017-02-23T05:55:07.411Z,11.09
2017-02-23T05:55:47.940Z,11.04
2017-02-23T05:56:28.459Z,11.09
2017-02-23T05:57:08.994Z,11.06
2017-02-23T05:57:49.525Z,11
2017-02-23T05:58:30.059Z,11
2017-02-23T05:59:10.560Z,11.09
2017-02-23T05:59:51.060Z,11.04
2017-02-23T06:00:31.595Z,11.1
2017-02-23T06:01:12.137Z,11.09
2017-02-23T06:01:52.671Z,11.07
2017-02-23T06:02:33.564Z,11.15
2017-02-23T06:03:14.091Z,11.09
2017-02-23T06:03:54.689Z,11.1
2017-02-23T06:04:35.203Z,11
2017-02-23T06:05:15.747Z,11.06
2017-02-23T06:05:56.260Z,11.07
2017-02-23T06:06:36.824Z,11.03
2017-02-23T06:07:17.372Z,10.99
2017-02-23T06:07:57.980Z,11.02
2017-02-23T06:08:38.643Z,10.97
2017-02-23T06:09:19.153Z,11
2017-02-23T06:09:59.696Z,11
2017-02-23T06:10:40.354Z,11.06
2017-02-23T06:11:20.880Z,11.03
2017-02-23T06:12:01.377Z,11
2017-02-23T06:12:42.000Z,11.02
2017-02-23T06:13:22.434Z,10.92
2017-02-23T06:14:02.989Z,11.04
2017-02-23T06:14:43.534Z,11
2017-02-23T06:15:24.213Z,11.02
2017-02-23T06:16:04.776Z,11.03
2017-02-23T06:16:45.319Z,11.06
2017-02-23T06:17:25.854Z,11.03
2017-02-23T06:18:06.402Z,11
2017-02-23T06:18:46.883Z,11.02
2017-02-23T06:19:27.382Z,11
2017-02-23T06:20:07.907Z,10.99
2017-02-23T06:20:48.443Z,11
2017-02-23T06:21:28.983Z,11.03
2017-02-23T06:22:09.520Z,11.03
2017-02-23T06:22:50.058Z,11.04
2017-02-23T06:23:30.622Z,11
2017-02-23T06:24:11.130Z,11.04
2017-02-23T06:24:51.672Z,11.04
2017-02-23T06:25:32.205Z,11.02
2017-02-23T06:26:12.735Z,11.02
2017-02-23T06:26:53.266Z,11
2017-02-23T06:27:33.795Z,11.06
2017-02-23T06:28:14.313Z,11
2017-02-23T06:28:54.841Z,11
2017-02-23T06:29:35.366Z,10.97
2017-02-23T06:30:15.920Z,10.99
2017-02-23T06:30:56.456Z,11.04
2017-02-23T06:31:36.966Z,11
2017-02-23T06:32:17.498Z,10.99
2017-02-23T06:32:58.018Z,11.03
2017-02-23T06:33:38.568Z,11.03
2017-02-23T06:34:19.107Z,11
2017-02-23T06:34:59.634Z,10.96
2017-02-23T06:35:40.165Z,10.97
2017-02-23T06:36:20.707Z,10.94
2017-02-23T06:37:01.267Z,10.99
2017-02-23T06:37:41.783Z,10.96
2017-02-23T06:38:22.300Z,10.97
2017-02-23T06:39:02.818Z,10.97
2017-02-23T06:39:43.339Z,10.96
2017-02-23T06:40:23.885Z,10.92
2017-02-23T06:41:04.407Z,11.04
2017-02-23T06:41:44.934Z,10.96
2017-02-23T06:42:25.462Z,11
2017-02-23T06:43:06.023Z,10.97
2017-02-23T06:43:46.550Z,11
2017-02-23T06:44:27.079Z,11
2017-02-23T06:45:07.637Z,10.97
2017-02-23T06:45:48.170Z,11
2017-02-23T06:46:28.707Z,10.96
2017-02-23T06:47:09.245Z,11.03
2017-02-23T06:47:49.795Z,11.04
2017-02-23T06:48:30.321Z,10.96
2017-02-23T06:49:10.836Z,10.96
2017-02-23T06:49:51.387Z,10.99
2017-02-23T06:50:31.925Z,10.91
2017-02-23T06:51:12.451Z,10.91
2017-02-23T06:51:52.990Z,10.99
2017-02-23T06:52:33.566Z,10.99
2017-02-23T06:53:14.327Z,10.94
2017-02-23T06:53:54.903Z,10.92
2017-02-23T06:54:35.446Z,10.85
2017-02-23T06:55:15.982Z,10.88
2017-02-23T06:55:56.509Z,10.99
2017-02-23T06:56:37.050Z,10.96
2017-02-23T06:57:17.557Z,10.92
2017-02-23T06:57:58.099Z,10.88
2017-02-23T06:58:38.630Z,10.86
2017-02-23T06:59:19.149Z,10.88
2017-02-23T06:59:59.684Z,10.89
2017-02-23T07:00:40.234Z,10.85
2017-02-23T07:01:20.740Z,10.85
2017-02-23T07:02:01.274Z,10.88
2017-02-23T07:02:41.812Z,10.89
2017-02-23T07:03:22.410Z,10.91
2017-02-23T07:04:02.949Z,10.86
2017-02-23T07:04:43.479Z,10.86
2017-02-23T07:05:24.017Z,10.84
2017-02-23T07:06:04.555Z,10.84
2017-02-23T07:06:45.093Z,10.96
2017-02-23T07:07:25.633Z,10.91
2017-02-23T07:08:06.173Z,10.92
2017-02-23T07:08:46.688Z,10.85
2017-02-23T07:09:27.234Z,10.99
2017-02-23T07:10:07.766Z,10.84
2017-02-23T07:10:48.300Z,10.86
2017-02-23T07:11:28.837Z,10.85
2017-02-23T07:12:09.370Z,10.88
2017-02-23T07:12:49.904Z,10.89
2017-02-23T07:13:30.490Z,10.92
2017-02-23T07:14:11.031Z,10.85
2017-02-23T07:14:51.559Z,10.96
2017-02-23T07:15:32.099Z,10.81
2017-02-23T07:16:12.638Z,10.85
2017-02-23T07:16:53.174Z,10.86
2017-02-23T07:17:33.717Z,10.85
2017-02-23T07:18:14.263Z,10.88
2017-02-23T07:18:54.776Z,10.88
2017-02-23T07:19:35.305Z,10.84
2017-02-23T07:20:15.839Z,10.92
2017-02-23T07:20:56.375Z,10.86
2017-02-23T07:21:36.920Z,10.86
2017-02-23T07:22:17.446Z,10.85
2017-02-23T07:22:57.981Z,10.88
2017-02-23T07:23:38.512Z,10.91
2017-02-23T07:24:19.053Z,10.82
2017-02-23T07:24:59.586Z,10.88
2017-02-23T07:25:40.121Z,10.89
2017-02-23T07:26:20.658Z,10.85
2017-02-23T07:27:03.179Z,10.81
2017-02-23T07:27:43.727Z,10.81
2017-02-23T07:28:24.263Z,10.88
2017-02-23T07:29:04.797Z,10.76
2017-02-23T07:29:45.330Z,10.84
2017-02-23T07:30:25.864Z,10.81
2017-02-23T07:31:06.399Z,10.81
2017-02-23T07:31:46.936Z,10.79
2017-02-23T07:32:27.476Z,10.81
2017-02-23T07:33:08.011Z,10.88
2017-02-23T07:33:48.542Z,10.82
2017-02-23T07:34:29.071Z,10.78
2017-02-23T07:35:09.613Z,10.81
2017-02-23T07:35:50.146Z,10.82
2017-02-23T07:36:30.682Z,10.73
2017-02-23T07:37:11.219Z,10.73
2017-02-23T07:37:51.754Z,10.79
2017-02-23T07:38:32.291Z,10.85
2017-02-23T07:39:12.822Z,10.73
2017-02-23T07:39:53.354Z,10.84
2017-02-23T07:40:33.887Z,10.79
2017-02-23T07:41:14.421Z,10.79
2017-02-23T07:41:54.956Z,10.85
2017-02-23T07:42:35.491Z,10.7
2017-02-23T07:43:16.021Z,10.86
2017-02-23T07:43:56.559Z,10.82
2017-02-23T07:44:37.093Z,10.78
2017-02-23T07:45:17.622Z,10.71
2017-02-23T07:45:58.159Z,10.81
2017-02-23T07:46:38.698Z,10.73
2017-02-23T07:47:19.226Z,10.74
2017-02-23T07:47:59.763Z,10.7
2017-02-23T07:48:40.307Z,10.74
2017-02-23T07:49:20.835Z,10.74
2017-02-23T07:50:01.373Z,10.74
2017-02-23T07:50:41.913Z,10.73
2017-02-23T07:51:22.474Z,10.74
2017-02-23T07:52:02.981Z,10.85
2017-02-23T07:52:43.516Z,10.79
2017-02-23T07:53:24.049Z,10.74
2017-02-23T07:54:04.591Z,10.76
2017-02-23T07:54:45.121Z,10.78
2017-02-23T07:55:25.653Z,10.81
2017-02-23T07:56:06.190Z,10.82
2017-02-23T07:56:46.725Z,10.81
2017-02-23T07:57:27.264Z,10.76
2017-02-23T07:58:07.794Z,10.76
2017-02-23T07:58:48.332Z,10.78
2017-02-23T07:59:28.870Z,10.78
2017-02-23T08:00:09.403Z,10.79
2017-02-23T08:00:49.932Z,10.76
2017-02-23T08:01:30.475Z,10.76
2017-02-23T08:02:10.997Z,10.7
2017-02-23T08:02:51.529Z,10.76
2017-02-23T08:03:32.067Z,10.68
2017-02-23T08:04:12.589Z,10.67
2017-02-23T08:04:53.130Z,10.66
2017-02-23T08:05:33.669Z,10.68
2017-02-23T08:06:14.206Z,10.73
2017-02-23T08:06:54.748Z,10.67
2017-02-23T08:07:35.283Z,10.74
2017-02-23T08:08:15.813Z,10.73
2017-02-23T08:08:56.342Z,10.7
2017-02-23T08:09:36.880Z,10.74
2017-02-23T08:10:17.405Z,10.67
2017-02-23T08:10:57.933Z,10.66
2017-02-23T08:11:38.468Z,10.64
2017-02-23T08:12:19.012Z,10.7
2017-02-23T08:12:59.537Z,10.64
2017-02-23T08:13:40.073Z,10.66
2017-02-23T08:14:20.611Z,10.7
2017-02-23T08:15:01.157Z,10.66
2017-02-23T08:15:41.689Z,10.61
2017-02-23T08:16:22.221Z,10.6
2017-02-23T08:17:02.753Z,10.63
2017-02-23T08:17:43.293Z,10.61
2017-02-23T08:18:23.828Z,10.67
2017-02-23T08:19:04.365Z,10.64
2017-02-23T08:19:44.896Z,10.68
2017-02-23T08:20:25.435Z,10.59
2017-02-23T08:21:05.973Z,10.63
2017-02-23T08:21:46.512Z,10.67
2017-02-23T08:22:27.045Z,10.66
2017-02-23T08:23:07.581Z,10.59
2017-02-23T08:23:48.117Z,10.66
2017-02-23T08:24:28.654Z,10.66
2017-02-23T08:25:09.196Z,10.64
2017-02-23T08:25:49.728Z,10.61
2017-02-23T08:26:30.264Z,10.7
2017-02-23T08:27:10.796Z,10.68
2017-02-23T08:27:51.337Z,10.63
2017-02-23T08:28:31.878Z,10.7
2017-02-23T08:29:12.412Z,10.64
2017-02-23T08:29:52.933Z,10.59
2017-02-23T08:30:33.458Z,10.63
2017-02-23T08:31:13.988Z,10.64
2017-02-23T08:31:54.527Z,10.63
2017-02-23T08:32:35.066Z,10.66
2017-02-23T08:33:15.615Z,10.64
2017-02-23T08:33:56.154Z,10.66
2017-02-23T08:34:36.696Z,10.6
2017-02-23T08:35:17.239Z,10.6
2017-02-23T08:35:57.774Z,10.66
2017-02-23T08:36:38.314Z,10.66
2017-02-23T08:37:18.885Z,10.63
2017-02-23T08:37:59.418Z,10.61
2017-02-23T08:38:39.957Z,10.7
2017-02-23T08:39:20.498Z,10.63
2017-02-23T08:40:01.033Z,10.6
2017-02-23T08:40:41.567Z,10.56
2017-02-23T08:41:22.105Z,10.67
2017-02-23T08:42:02.645Z,10.64
2017-02-23T08:42:43.180Z,10.53
2017-02-23T08:43:23.713Z,10.55
2017-02-23T08:44:04.251Z,10.61
2017-02-23T08:44:44.790Z,10.53
2017-02-23T08:45:25.329Z,10.55
2017-02-23T08:46:05.870Z,10.51
2017-02-23T08:46:46.407Z,10.48
2017-02-23T08:47:26.939Z,10.56
2017-02-23T08:48:07.473Z,10.51
2017-02-23T08:48:47.995Z,10.56
2017-02-23T08:49:28.531Z,10.55
2017-02-23T08:50:09.062Z,10.48
2017-02-23T08:50:49.585Z,10.48
2017-02-23T08:51:30.155Z,10.48
2017-02-23T08:52:10.678Z,10.48
2017-02-23T08:52:51.220Z,10.56
2017-02-23T08:53:31.758Z,10.52
2017-02-23T08:54:12.279Z,10.55
2017-02-23T08:54:52.817Z,10.51
2017-02-23T08:55:33.352Z,10.55
2017-02-23T08:56:13.880Z,10.51
2017-02-23T08:56:54.415Z,10.48
2017-02-23T08:57:34.966Z,10.47
2017-02-23T08:58:15.503Z,10.52
2017-02-23T08:58:56.038Z,10.47
2017-02-23T08:59:36.565Z,10.45
2017-02-23T09:00:17.087Z,10.47
2017-02-23T09:00:57.630Z,10.55
2017-02-23T09:01:38.215Z,10.55
2017-02-23T09:02:18.684Z,10.44
2017-02-23T09:02:59.220Z,10.42
2017-02-23T09:03:39.757Z,10.52
2017-02-23T09:04:20.291Z,10.56
2017-02-23T09:05:00.820Z,10.48
2017-02-23T09:05:41.365Z,10.55
2017-02-23T09:06:21.893Z,10.48
2017-02-23T09:07:02.425Z,10.48
2017-02-23T09:07:42.959Z,10.45
2017-02-23T09:08:23.518Z,10.55
2017-02-23T09:09:04.025Z,10.47
2017-02-23T09:09:44.560Z,10.42
2017-02-23T09:10:25.098Z,10.41
2017-02-23T09:11:05.637Z,10.36
2017-02-23T09:11:46.175Z,10.51
2017-02-23T09:12:26.712Z,10.41
2017-02-23T09:13:07.242Z,10.51
2017-02-23T09:13:47.774Z,10.44
2017-02-23T09:14:28.327Z,10.48
2017-02-23T09:15:08.850Z,10.52
2017-02-23T09:15:49.398Z,10.48
2017-02-23T09:16:29.934Z,10.44
2017-02-23T09:17:10.469Z,10.47
2017-02-23T09:17:51.006Z,10.48
2017-02-23T09:18:31.539Z,10.44
2017-02-23T09:19:12.078Z,10.51